Portada
METAR-TAF:

METAR-TAF

Aeropuertos :

Aeropuerto Internacional de Nador

Nador, Marruecos

latitud: 34-59-20N, longitud: 003-01-42W, altitud: 175 m

Observación

El informe se hizo hace 58 minutos, a las 22:00 UTC
Viento 8 kt del este, variando entre este y suroeste
Temperatura 14°C
Humedad 77%
Presión 1011 hPa
Visibilidad 10 km o más
Nubes dispersas a una altura de 2000 ft
Nubes dispersas a una altura de 10000 ft

METAR: GMMW 312200Z 10008KT 090V220 9999 SCT020 SCT100 14/10 Q1011 NOSIG

Hora: 23:58 (22:58 UTC)

Pronóstico

El informe se hizo hace 5 horas y 58 minutos, a las 17:00 UTC
Pronóstico válido del 31 a las 18 UTC al 01 a las 24 UTC
Viento 7 kt del norte-noroeste
Visibilidad 10 km o más
Escasas nubes a una altura de 2000 ft
Nubes dispersas a una altura de 10000 ft

TAF: GMMW 311700Z 3118/0124 33007KT 9999 FEW020 SCT100

Observaciones y pronósticos meteorológicos de más de 4000 aeropuertos (mensajes METAR y TAF).

Los puntos amarillos y rojos representan las estaciones disponibles.

Ponga el ratón en el punto deseado para ver el nombre de la estación.

Haga clic para ver las observaciones y los pronósticos meteorológicos.

Para cambiar el mapa : haga clic en los botones verdes con una cruz de color negro para hacer un zoom, en el botón verde con un guión para alejar o en las flechas verdes para mapas adyacentes.


METAR-TAF: